STL weather

St Louis Lambert International Airport
St Louis, Missouri, United States

Public forecast

Using degrees Fahrenheit for public forecast. Weather courtesy of forecast.io.

METAR (pilot weather report)

Retrieved 2018/04/26 19:51 UTC (35 minutes ago):

KSTL 261951Z 27012KT 10SM FEW060 BKN250 21/06 A2992 RMK AO2 SLP128 T02060056

TAF (pilot weather forecast)

Retrieved 2018/04/26 18:27 UTC (2 hours ago):

TAF KSTL 261724Z 2618/2724 31004KT P6SM FEW060 SCT250 FM270500 26005KT P6SM SCT250 FM271500 30010KT P6SM SCT250